createdAt,value
2022-08-20T00:01:56.453Z,40.18
2022-08-20T00:04:25.628Z,40.87
2022-08-20T00:06:54.849Z,41.48
2022-08-20T00:09:23.915Z,39.63
2022-08-20T00:11:54.172Z,40.53
2022-08-20T00:14:23.341Z,40.33
2022-08-20T00:16:52.433Z,42.36
2022-08-20T00:19:22.861Z,42.98
2022-08-20T00:21:55.729Z,42.56
2022-08-20T00:24:24.550Z,42.56
2022-08-20T00:26:53.933Z,45.20
2022-08-20T00:29:23.135Z,44.12
2022-08-20T00:31:53.052Z,44.95
2022-08-20T00:34:22.345Z,45.14
2022-08-20T00:36:51.547Z,45.46
2022-08-20T00:39:20.742Z,44.00
2022-08-20T00:41:52.916Z,43.78
2022-08-20T00:44:23.478Z,44.25
2022-08-20T00:46:54.279Z,45.43
2022-08-20T00:49:29.412Z,43.04
2022-08-20T00:52:10.716Z,43.04
2022-08-20T00:54:55.179Z,44.38
2022-08-20T00:57:59.125Z,44.83
2022-08-20T01:00:09.557Z,45.33
2022-08-20T01:02:38.856Z,44.90
2022-08-20T01:05:09.693Z,44.66
2022-08-20T01:07:40.057Z,44.60
2022-08-20T01:10:12.349Z,43.41
2022-08-20T01:12:46.464Z,44.10
2022-08-20T01:15:18.811Z,43.06
2022-08-20T01:17:51.850Z,43.85
2022-08-20T01:20:28.570Z,43.85
2022-08-20T01:23:21.350Z,42.80
2022-08-20T01:25:56.546Z,43.78
2022-08-20T01:28:28.656Z,42.33
2022-08-20T01:30:58.281Z,42.17
2022-08-20T01:33:28.199Z,43.67
2022-08-20T01:35:57.712Z,43.09
2022-08-20T01:38:27.578Z,43.09
2022-08-20T01:41:05.557Z,43.45
2022-08-20T01:43:37.155Z,43.29
2022-08-20T01:46:07.072Z,44.81
2022-08-20T01:48:36.159Z,44.04
2022-08-20T01:51:17.030Z,44.30
2022-08-20T01:53:52.210Z,44.30
2022-08-20T01:56:25.975Z,44.17
2022-08-20T01:58:59.028Z,44.20
2022-08-20T02:01:34.596Z,43.54
2022-08-20T02:04:07.602Z,45.93
2022-08-20T02:06:41.586Z,46.67
2022-08-20T02:09:16.184Z,47.57
2022-08-20T02:11:47.154Z,47.57
2022-08-20T02:14:17.238Z,49.12
2022-08-20T02:16:54.729Z,49.30
2022-08-20T02:19:24.491Z,43.80
2022-08-20T02:21:56.763Z,44.47
2022-08-20T02:24:25.871Z,44.38
2022-08-20T02:26:55.844Z,44.80
2022-08-20T02:29:26.413Z,43.28
2022-08-20T02:32:24.574Z,43.28
2022-08-20T02:34:26.442Z,42.41
2022-08-20T02:36:55.669Z,42.41
2022-08-20T02:39:26.168Z,42.72
2022-08-20T02:41:55.763Z,42.72
2022-08-20T02:44:24.968Z,42.78
2022-08-20T02:46:54.304Z,41.59
2022-08-20T02:49:23.877Z,41.59
2022-08-20T02:51:53.082Z,42.85
2022-08-20T02:54:22.279Z,42.16
2022-08-20T02:56:52.550Z,42.83
2022-08-20T02:59:21.702Z,42.18
2022-08-20T03:01:59.238Z,42.18
2022-08-20T03:04:23.269Z,43.63
2022-08-20T03:06:54.307Z,43.63
2022-08-20T03:09:23.462Z,41.92
2022-08-20T03:11:53.214Z,41.60
2022-08-20T03:14:22.516Z,43.09
2022-08-20T03:16:52.331Z,42.36
2022-08-20T03:19:21.755Z,42.53
2022-08-20T03:21:51.031Z,42.21
2022-08-20T03:24:20.451Z,41.51
2022-08-20T03:26:49.635Z,41.12
2022-08-20T03:29:18.778Z,41.03
2022-08-20T03:31:48.130Z,42.32
2022-08-20T03:34:17.331Z,42.32
2022-08-20T03:36:46.520Z,42.55
2022-08-20T03:39:15.844Z,42.29
2022-08-20T03:41:45.126Z,41.69
2022-08-20T03:44:14.227Z,43.16
2022-08-20T03:46:43.645Z,42.60
2022-08-20T03:49:12.830Z,41.93
2022-08-20T03:51:57.584Z,41.93
2022-08-20T03:54:13.068Z,40.84
2022-08-20T03:56:42.258Z,41.56
2022-08-20T03:59:11.431Z,41.67
2022-08-20T04:01:45.592Z,41.83
2022-08-20T04:04:12.173Z,42.08
2022-08-20T04:06:42.445Z,42.88
2022-08-20T04:09:12.864Z,42.88
2022-08-20T04:11:42.932Z,42.48
2022-08-20T04:14:17.420Z,42.67
2022-08-20T04:16:45.918Z,42.00
2022-08-20T04:19:16.721Z,41.44
2022-08-20T04:21:47.657Z,41.44
2022-08-20T04:24:22.520Z,42.66
2022-08-20T04:26:48.309Z,42.29
2022-08-20T04:29:17.498Z,43.38
2022-08-20T04:31:46.695Z,43.38
2022-08-20T04:34:17.436Z,44.42
2022-08-20T04:36:48.890Z,44.42
2022-08-20T04:39:18.490Z,43.84
2022-08-20T04:41:47.609Z,43.03
2022-08-20T04:44:16.893Z,43.03
2022-08-20T04:46:45.985Z,45.54
2022-08-20T04:49:15.335Z,45.36
2022-08-20T04:51:44.487Z,45.36
2022-08-20T04:54:15.007Z,43.74
2022-08-20T04:56:44.325Z,43.74
2022-08-20T04:59:14.050Z,43.17
2022-08-20T05:01:43.220Z,43.17
2022-08-20T05:04:12.410Z,44.58
2022-08-20T05:06:41.644Z,44.58
2022-08-20T05:09:10.820Z,44.04
2022-08-20T05:11:40.220Z,43.10
2022-08-20T05:14:10.819Z,42.23
2022-08-20T05:16:41.499Z,42.96
2022-08-20T05:19:13.654Z,42.96
2022-08-20T05:21:43.258Z,43.20
2022-08-20T05:24:13.167Z,42.94
2022-08-20T05:26:42.491Z,43.29
2022-08-20T05:29:13.512Z,43.29
2022-08-20T05:31:43.224Z,43.90
2022-08-20T05:34:13.749Z,44.82
2022-08-20T05:36:45.914Z,44.95
2022-08-20T05:39:17.067Z,44.95
2022-08-20T05:41:46.800Z,45.06
2022-08-20T05:44:16.387Z,43.73
2022-08-20T05:46:47.424Z,44.19
2022-08-20T05:49:20.333Z,44.70
2022-08-20T05:51:51.522Z,44.01
2022-08-20T05:54:21.363Z,44.92
